sensor_id;sensor_type;location;lat;lon;timestamp;P1;durP1;ratioP1;P2;durP2;ratioP2
7845;SDS011;3968;51.424;6.788;2023-04-29T00:02:20;37.50;;;27.43;;
7845;SDS011;3968;51.424;6.788;2023-04-29T00:04:46;36.17;;;26.40;;
7845;SDS011;3968;51.424;6.788;2023-04-29T00:07:12;36.27;;;26.53;;
7845;SDS011;3968;51.424;6.788;2023-04-29T00:09:40;39.50;;;30.00;;
7845;SDS011;3968;51.424;6.788;2023-04-29T00:12:06;41.50;;;27.57;;
7845;SDS011;3968;51.424;6.788;2023-04-29T00:14:32;35.27;;;25.50;;
7845;SDS011;3968;51.424;6.788;2023-04-29T00:16:58;43.00;;;28.77;;
7845;SDS011;3968;51.424;6.788;2023-04-29T00:19:24;44.67;;;29.50;;
7845;SDS011;3968;51.424;6.788;2023-04-29T00:21:50;42.80;;;28.37;;
7845;SDS011;3968;51.424;6.788;2023-04-29T00:24:18;40.17;;;28.03;;
7845;SDS011;3968;51.424;6.788;2023-04-29T00:26:44;42.57;;;29.47;;
7845;SDS011;3968;51.424;6.788;2023-04-29T00:29:10;44.90;;;30.57;;
7845;SDS011;3968;51.424;6.788;2023-04-29T00:31:36;50.23;;;31.50;;
7845;SDS011;3968;51.424;6.788;2023-04-29T00:34:03;49.63;;;33.13;;
7845;SDS011;3968;51.424;6.788;2023-04-29T00:36:29;46.63;;;30.87;;
7845;SDS011;3968;51.424;6.788;2023-04-29T00:38:56;57.10;;;34.73;;
7845;SDS011;3968;51.424;6.788;2023-04-29T00:41:23;57.60;;;34.97;;
7845;SDS011;3968;51.424;6.788;2023-04-29T00:43:49;52.93;;;35.37;;
7845;SDS011;3968;51.424;6.788;2023-04-29T00:46:16;56.97;;;36.23;;
7845;SDS011;3968;51.424;6.788;2023-04-29T00:48:42;53.93;;;35.43;;
7845;SDS011;3968;51.424;6.788;2023-04-29T00:51:08;57.63;;;35.80;;
7845;SDS011;3968;51.424;6.788;2023-04-29T00:53:35;54.87;;;35.17;;
7845;SDS011;3968;51.424;6.788;2023-04-29T00:56:01;52.30;;;34.57;;
7845;SDS011;3968;51.424;6.788;2023-04-29T00:58:28;69.23;;;38.10;;
7845;SDS011;3968;51.424;6.788;2023-04-29T01:01:01;64.20;;;39.13;;
7845;SDS011;3968;51.424;6.788;2023-04-29T01:03:31;68.93;;;38.40;;
7845;SDS011;3968;51.424;6.788;2023-04-29T01:06:01;59.90;;;37.10;;
7845;SDS011;3968;51.424;6.788;2023-04-29T01:11:10;64.27;;;39.40;;
7845;SDS011;3968;51.424;6.788;2023-04-29T01:13:43;68.00;;;37.90;;
7845;SDS011;3968;51.424;6.788;2023-04-29T01:16:12;66.23;;;37.93;;
7845;SDS011;3968;51.424;6.788;2023-04-29T01:18:44;70.23;;;40.60;;
7845;SDS011;3968;51.424;6.788;2023-04-29T01:21:10;69.77;;;40.27;;
7845;SDS011;3968;51.424;6.788;2023-04-29T01:23:36;63.67;;;39.47;;
7845;SDS011;3968;51.424;6.788;2023-04-29T01:26:02;69.73;;;39.50;;
7845;SDS011;3968;51.424;6.788;2023-04-29T01:28:47;67.50;;;38.30;;
7845;SDS011;3968;51.424;6.788;2023-04-29T01:31:50;71.67;;;39.50;;
7845;SDS011;3968;51.424;6.788;2023-04-29T01:39:13;67.50;;;39.53;;
7845;SDS011;3968;51.424;6.788;2023-04-29T01:41:42;71.13;;;39.57;;
7845;SDS011;3968;51.424;6.788;2023-04-29T01:44:16;66.60;;;37.40;;
7845;SDS011;3968;51.424;6.788;2023-04-29T01:46:49;70.20;;;39.43;;
7845;SDS011;3968;51.424;6.788;2023-04-29T01:49:18;66.83;;;39.50;;
7845;SDS011;3968;51.424;6.788;2023-04-29T01:51:45;74.83;;;40.43;;
7845;SDS011;3968;51.424;6.788;2023-04-29T01:54:11;71.10;;;39.80;;
7845;SDS011;3968;51.424;6.788;2023-04-29T01:56:37;74.53;;;41.70;;
7845;SDS011;3968;51.424;6.788;2023-04-29T01:59:03;70.90;;;39.90;;
7845;SDS011;3968;51.424;6.788;2023-04-29T02:01:29;80.90;;;43.53;;
7845;SDS011;3968;51.424;6.788;2023-04-29T02:03:55;72.27;;;41.43;;
7845;SDS011;3968;51.424;6.788;2023-04-29T02:06:21;74.93;;;40.40;;
7845;SDS011;3968;51.424;6.788;2023-04-29T02:08:48;83.03;;;42.03;;
7845;SDS011;3968;51.424;6.788;2023-04-29T02:11:14;78.47;;;41.40;;
7845;SDS011;3968;51.424;6.788;2023-04-29T02:13:41;79.90;;;41.60;;
7845;SDS011;3968;51.424;6.788;2023-04-29T02:16:07;71.93;;;39.97;;
7845;SDS011;3968;51.424;6.788;2023-04-29T02:18:33;63.63;;;37.33;;
7845;SDS011;3968;51.424;6.788;2023-04-29T02:20:59;63.07;;;36.73;;
7845;SDS011;3968;51.424;6.788;2023-04-29T02:23:26;69.40;;;37.17;;
7845;SDS011;3968;51.424;6.788;2023-04-29T02:25:52;56.93;;;33.97;;
7845;SDS011;3968;51.424;6.788;2023-04-29T02:28:18;66.30;;;36.73;;
7845;SDS011;3968;51.424;6.788;2023-04-29T02:30:44;57.30;;;33.10;;
7845;SDS011;3968;51.424;6.788;2023-04-29T02:33:10;51.40;;;31.40;;
7845;SDS011;3968;51.424;6.788;2023-04-29T02:35:36;51.67;;;30.20;;
7845;SDS011;3968;51.424;6.788;2023-04-29T02:38:02;55.47;;;30.17;;
7845;SDS011;3968;51.424;6.788;2023-04-29T02:40:28;49.53;;;29.73;;
7845;SDS011;3968;51.424;6.788;2023-04-29T02:42:54;49.70;;;30.00;;
7845;SDS011;3968;51.424;6.788;2023-04-29T02:45:20;42.87;;;28.33;;
7845;SDS011;3968;51.424;6.788;2023-04-29T02:47:46;46.60;;;28.53;;
7845;SDS011;3968;51.424;6.788;2023-04-29T02:50:12;45.83;;;29.17;;
7845;SDS011;3968;51.424;6.788;2023-04-29T02:52:38;47.83;;;28.60;;
7845;SDS011;3968;51.424;6.788;2023-04-29T02:55:06;41.17;;;26.70;;
7845;SDS011;3968;51.424;6.788;2023-04-29T02:57:32;39.73;;;25.73;;
7845;SDS011;3968;51.424;6.788;2023-04-29T02:59:58;39.50;;;26.30;;
7845;SDS011;3968;51.424;6.788;2023-04-29T03:02:24;40.73;;;25.50;;
7845;SDS011;3968;51.424;6.788;2023-04-29T03:04:50;41.40;;;25.87;;
7845;SDS011;3968;51.424;6.788;2023-04-29T03:07:17;40.60;;;26.30;;
7845;SDS011;3968;51.424;6.788;2023-04-29T03:09:43;36.23;;;23.50;;
7845;SDS011;3968;51.424;6.788;2023-04-29T03:12:09;34.77;;;23.23;;
7845;SDS011;3968;51.424;6.788;2023-04-29T03:14:35;34.93;;;23.53;;
7845;SDS011;3968;51.424;6.788;2023-04-29T03:17:01;31.73;;;23.40;;
7845;SDS011;3968;51.424;6.788;2023-04-29T03:19:28;36.03;;;24.47;;
7845;SDS011;3968;51.424;6.788;2023-04-29T03:21:54;33.53;;;23.57;;
7845;SDS011;3968;51.424;6.788;2023-04-29T03:24:20;34.97;;;23.00;;
7845;SDS011;3968;51.424;6.788;2023-04-29T03:26:47;34.57;;;23.73;;
7845;SDS011;3968;51.424;6.788;2023-04-29T03:29:13;32.13;;;22.00;;
7845;SDS011;3968;51.424;6.788;2023-04-29T03:31:39;35.03;;;23.30;;
7845;SDS011;3968;51.424;6.788;2023-04-29T03:34:05;34.13;;;23.03;;
7845;SDS011;3968;51.424;6.788;2023-04-29T03:36:31;32.37;;;23.00;;
7845;SDS011;3968;51.424;6.788;2023-04-29T03:38:57;32.30;;;22.97;;
7845;SDS011;3968;51.424;6.788;2023-04-29T03:41:23;34.70;;;23.73;;
7845;SDS011;3968;51.424;6.788;2023-04-29T03:43:50;35.07;;;23.00;;
7845;SDS011;3968;51.424;6.788;2023-04-29T03:46:16;32.63;;;22.33;;
7845;SDS011;3968;51.424;6.788;2023-04-29T03:48:42;30.33;;;20.90;;
7845;SDS011;3968;51.424;6.788;2023-04-29T03:51:08;31.27;;;21.70;;
7845;SDS011;3968;51.424;6.788;2023-04-29T03:53:34;31.80;;;21.50;;
7845;SDS011;3968;51.424;6.788;2023-04-29T03:56:01;32.80;;;21.97;;
7845;SDS011;3968;51.424;6.788;2023-04-29T03:58:27;32.90;;;21.70;;
7845;SDS011;3968;51.424;6.788;2023-04-29T04:00:53;31.77;;;21.77;;
7845;SDS011;3968;51.424;6.788;2023-04-29T04:03:20;30.77;;;20.93;;
7845;SDS011;3968;51.424;6.788;2023-04-29T04:05:47;29.30;;;19.87;;
7845;SDS011;3968;51.424;6.788;2023-04-29T04:08:13;29.40;;;19.60;;
7845;SDS011;3968;51.424;6.788;2023-04-29T04:10:39;26.07;;;19.73;;
7845;SDS011;3968;51.424;6.788;2023-04-29T04:13:04;25.20;;;19.23;;
7845;SDS011;3968;51.424;6.788;2023-04-29T04:15:30;25.23;;;18.60;;
7845;SDS011;3968;51.424;6.788;2023-04-29T04:17:57;28.57;;;19.03;;
7845;SDS011;3968;51.424;6.788;2023-04-29T04:20:23;28.50;;;18.90;;
7845;SDS011;3968;51.424;6.788;2023-04-29T04:22:49;28.30;;;19.57;;
7845;SDS011;3968;51.424;6.788;2023-04-29T04:25:14;25.03;;;17.97;;
7845;SDS011;3968;51.424;6.788;2023-04-29T04:27:40;30.60;;;18.73;;
7845;SDS011;3968;51.424;6.788;2023-04-29T04:30:07;29.10;;;19.30;;
7845;SDS011;3968;51.424;6.788;2023-04-29T04:32:33;26.80;;;19.07;;
7845;SDS011;3968;51.424;6.788;2023-04-29T04:34:59;27.70;;;19.93;;
7845;SDS011;3968;51.424;6.788;2023-04-29T04:37:25;28.60;;;20.13;;
7845;SDS011;3968;51.424;6.788;2023-04-29T04:39:52;25.60;;;18.77;;
7845;SDS011;3968;51.424;6.788;2023-04-29T04:42:18;30.50;;;19.60;;
7845;SDS011;3968;51.424;6.788;2023-04-29T04:44:44;29.23;;;20.67;;
7845;SDS011;3968;51.424;6.788;2023-04-29T04:47:10;26.10;;;19.60;;
7845;SDS011;3968;51.424;6.788;2023-04-29T04:49:36;28.53;;;20.10;;
7845;SDS011;3968;51.424;6.788;2023-04-29T04:52:02;28.13;;;20.40;;
7845;SDS011;3968;51.424;6.788;2023-04-29T04:54:28;28.13;;;19.33;;
7845;SDS011;3968;51.424;6.788;2023-04-29T04:56:54;26.57;;;19.07;;
7845;SDS011;3968;51.424;6.788;2023-04-29T04:59:20;31.07;;;20.97;;
7845;SDS011;3968;51.424;6.788;2023-04-29T05:01:46;24.50;;;18.77;;
7845;SDS011;3968;51.424;6.788;2023-04-29T05:04:12;28.67;;;19.93;;
7845;SDS011;3968;51.424;6.788;2023-04-29T05:06:39;29.43;;;20.27;;
7845;SDS011;3968;51.424;6.788;2023-04-29T05:09:05;27.87;;;19.97;;
7845;SDS011;3968;51.424;6.788;2023-04-29T05:11:31;24.80;;;18.40;;
7845;SDS011;3968;51.424;6.788;2023-04-29T05:13:57;25.83;;;19.57;;
7845;SDS011;3968;51.424;6.788;2023-04-29T05:16:23;25.57;;;18.63;;
7845;SDS011;3968;51.424;6.788;2023-04-29T05:18:50;26.40;;;19.10;;
7845;SDS011;3968;51.424;6.788;2023-04-29T05:21:16;27.17;;;19.03;;
7845;SDS011;3968;51.424;6.788;2023-04-29T05:23:42;25.77;;;18.70;;
7845;SDS011;3968;51.424;6.788;2023-04-29T05:26:08;27.90;;;19.30;;
7845;SDS011;3968;51.424;6.788;2023-04-29T05:28:34;25.83;;;18.90;;
7845;SDS011;3968;51.424;6.788;2023-04-29T05:31:00;24.20;;;18.30;;
7845;SDS011;3968;51.424;6.788;2023-04-29T05:33:26;23.40;;;18.17;;
7845;SDS011;3968;51.424;6.788;2023-04-29T05:35:52;24.83;;;18.90;;
7845;SDS011;3968;51.424;6.788;2023-04-29T05:38:18;29.03;;;20.27;;
7845;SDS011;3968;51.424;6.788;2023-04-29T05:40:44;26.00;;;19.23;;
7845;SDS011;3968;51.424;6.788;2023-04-29T05:43:13;27.13;;;18.67;;
7845;SDS011;3968;51.424;6.788;2023-04-29T05:45:39;26.03;;;18.23;;
7845;SDS011;3968;51.424;6.788;2023-04-29T05:48:05;25.93;;;18.70;;
7845;SDS011;3968;51.424;6.788;2023-04-29T05:50:33;23.57;;;17.33;;
7845;SDS011;3968;51.424;6.788;2023-04-29T05:52:59;25.97;;;17.83;;
7845;SDS011;3968;51.424;6.788;2023-04-29T05:55:25;26.07;;;18.37;;
7845;SDS011;3968;51.424;6.788;2023-04-29T05:57:51;24.47;;;18.40;;
7845;SDS011;3968;51.424;6.788;2023-04-29T06:00:17;31.03;;;19.10;;
7845;SDS011;3968;51.424;6.788;2023-04-29T06:02:43;25.90;;;19.23;;
7845;SDS011;3968;51.424;6.788;2023-04-29T06:05:09;25.80;;;18.83;;
7845;SDS011;3968;51.424;6.788;2023-04-29T06:07:35;22.97;;;18.03;;
7845;SDS011;3968;51.424;6.788;2023-04-29T06:10:02;22.83;;;18.03;;
7845;SDS011;3968;51.424;6.788;2023-04-29T06:12:28;26.70;;;18.33;;
7845;SDS011;3968;51.424;6.788;2023-04-29T06:14:54;23.57;;;18.53;;
7845;SDS011;3968;51.424;6.788;2023-04-29T06:17:21;24.53;;;17.77;;
7845;SDS011;3968;51.424;6.788;2023-04-29T06:19:47;23.43;;;17.97;;
7845;SDS011;3968;51.424;6.788;2023-04-29T06:22:13;24.87;;;18.33;;
7845;SDS011;3968;51.424;6.788;2023-04-29T06:24:39;22.23;;;17.77;;
7845;SDS011;3968;51.424;6.788;2023-04-29T06:27:05;21.97;;;16.77;;
7845;SDS011;3968;51.424;6.788;2023-04-29T06:29:31;23.80;;;18.60;;
7845;SDS011;3968;51.424;6.788;2023-04-29T06:31:57;22.03;;;16.87;;
7845;SDS011;3968;51.424;6.788;2023-04-29T06:34:23;23.70;;;17.57;;
7845;SDS011;3968;51.424;6.788;2023-04-29T06:36:49;22.33;;;16.80;;
7845;SDS011;3968;51.424;6.788;2023-04-29T06:39:15;22.97;;;17.23;;
7845;SDS011;3968;51.424;6.788;2023-04-29T06:41:41;24.87;;;17.97;;
7845;SDS011;3968;51.424;6.788;2023-04-29T06:44:07;24.37;;;17.30;;
7845;SDS011;3968;51.424;6.788;2023-04-29T06:46:33;20.87;;;16.77;;
7845;SDS011;3968;51.424;6.788;2023-04-29T06:48:59;21.23;;;16.47;;
7845;SDS011;3968;51.424;6.788;2023-04-29T06:51:25;22.90;;;18.00;;
7845;SDS011;3968;51.424;6.788;2023-04-29T06:53:52;23.00;;;17.23;;
7845;SDS011;3968;51.424;6.788;2023-04-29T06:56:18;23.13;;;18.43;;
7845;SDS011;3968;51.424;6.788;2023-04-29T06:58:45;23.20;;;17.07;;
7845;SDS011;3968;51.424;6.788;2023-04-29T07:01:11;22.07;;;17.23;;
7845;SDS011;3968;51.424;6.788;2023-04-29T07:03:37;24.33;;;18.13;;
7845;SDS011;3968;51.424;6.788;2023-04-29T07:06:03;24.53;;;18.43;;
7845;SDS011;3968;51.424;6.788;2023-04-29T07:08:30;23.93;;;18.87;;
7845;SDS011;3968;51.424;6.788;2023-04-29T07:10:56;26.47;;;18.60;;
7845;SDS011;3968;51.424;6.788;2023-04-29T07:13:23;21.97;;;17.67;;
7845;SDS011;3968;51.424;6.788;2023-04-29T07:15:49;21.93;;;17.27;;
7845;SDS011;3968;51.424;6.788;2023-04-29T07:18:15;23.33;;;18.10;;
7845;SDS011;3968;51.424;6.788;2023-04-29T07:20:41;21.07;;;16.93;;
7845;SDS011;3968;51.424;6.788;2023-04-29T07:23:09;23.03;;;17.23;;
7845;SDS011;3968;51.424;6.788;2023-04-29T07:25:35;21.83;;;16.60;;
7845;SDS011;3968;51.424;6.788;2023-04-29T07:28:01;22.10;;;18.13;;
7845;SDS011;3968;51.424;6.788;2023-04-29T07:30:28;30.23;;;22.87;;
7845;SDS011;3968;51.424;6.788;2023-04-29T07:32:54;29.23;;;19.63;;
7845;SDS011;3968;51.424;6.788;2023-04-29T07:35:20;25.37;;;19.87;;
7845;SDS011;3968;51.424;6.788;2023-04-29T07:37:46;26.23;;;19.00;;
7845;SDS011;3968;51.424;6.788;2023-04-29T07:40:13;25.10;;;18.60;;
7845;SDS011;3968;51.424;6.788;2023-04-29T07:42:39;27.20;;;18.80;;
7845;SDS011;3968;51.424;6.788;2023-04-29T07:45:05;23.90;;;18.90;;
7845;SDS011;3968;51.424;6.788;2023-04-29T07:47:31;26.37;;;19.77;;
7845;SDS011;3968;51.424;6.788;2023-04-29T07:49:57;31.43;;;22.63;;
7845;SDS011;3968;51.424;6.788;2023-04-29T07:52:23;31.30;;;23.53;;
7845;SDS011;3968;51.424;6.788;2023-04-29T07:54:49;31.90;;;24.97;;
7845;SDS011;3968;51.424;6.788;2023-04-29T07:57:15;37.43;;;26.27;;
7845;SDS011;3968;51.424;6.788;2023-04-29T07:59:41;33.30;;;24.13;;
7845;SDS011;3968;51.424;6.788;2023-04-29T08:02:07;38.67;;;25.43;;
7845;SDS011;3968;51.424;6.788;2023-04-29T08:04:33;32.27;;;24.00;;
7845;SDS011;3968;51.424;6.788;2023-04-29T08:06:59;35.63;;;24.03;;
7845;SDS011;3968;51.424;6.788;2023-04-29T08:09:26;30.93;;;22.73;;
7845;SDS011;3968;51.424;6.788;2023-04-29T08:11:52;29.50;;;22.80;;
7845;SDS011;3968;51.424;6.788;2023-04-29T08:14:18;29.80;;;22.73;;
7845;SDS011;3968;51.424;6.788;2023-04-29T08:16:44;28.93;;;22.40;;
7845;SDS011;3968;51.424;6.788;2023-04-29T08:19:10;27.77;;;21.20;;
7845;SDS011;3968;51.424;6.788;2023-04-29T08:21:36;33.20;;;22.80;;
7845;SDS011;3968;51.424;6.788;2023-04-29T08:24:02;30.63;;;22.57;;
7845;SDS011;3968;51.424;6.788;2023-04-29T08:26:29;33.73;;;23.93;;
7845;SDS011;3968;51.424;6.788;2023-04-29T08:28:55;30.57;;;22.53;;
7845;SDS011;3968;51.424;6.788;2023-04-29T08:31:21;29.07;;;22.13;;
7845;SDS011;3968;51.424;6.788;2023-04-29T08:33:47;29.17;;;21.10;;
7845;SDS011;3968;51.424;6.788;2023-04-29T08:36:13;29.90;;;22.10;;
7845;SDS011;3968;51.424;6.788;2023-04-29T08:38:39;30.27;;;21.30;;
7845;SDS011;3968;51.424;6.788;2023-04-29T08:41:08;25.13;;;19.37;;
7845;SDS011;3968;51.424;6.788;2023-04-29T08:43:35;65.13;;;47.30;;
7845;SDS011;3968;51.424;6.788;2023-04-29T08:46:02;51.53;;;34.17;;
7845;SDS011;3968;51.424;6.788;2023-04-29T08:48:29;71.50;;;46.63;;
7845;SDS011;3968;51.424;6.788;2023-04-29T08:50:55;54.87;;;34.50;;
7845;SDS011;3968;51.424;6.788;2023-04-29T08:53:26;33.73;;;24.47;;
7845;SDS011;3968;51.424;6.788;2023-04-29T08:55:52;33.80;;;24.83;;
7845;SDS011;3968;51.424;6.788;2023-04-29T08:58:19;38.13;;;26.30;;
7845;SDS011;3968;51.424;6.788;2023-04-29T09:00:45;78.83;;;53.83;;
7845;SDS011;3968;51.424;6.788;2023-04-29T09:05:41;112.37;;;77.00;;
7845;SDS011;3968;51.424;6.788;2023-04-29T09:08:07;60.30;;;41.53;;
7845;SDS011;3968;51.424;6.788;2023-04-29T09:10:35;47.00;;;32.30;;
7845;SDS011;3968;51.424;6.788;2023-04-29T09:13:01;33.73;;;22.67;;
7845;SDS011;3968;51.424;6.788;2023-04-29T09:15:28;33.87;;;21.50;;
7845;SDS011;3968;51.424;6.788;2023-04-29T09:17:54;30.80;;;21.57;;
7845;SDS011;3968;51.424;6.788;2023-04-29T09:22:50;35.67;;;23.03;;
7845;SDS011;3968;51.424;6.788;2023-04-29T09:25:16;31.93;;;21.83;;
7845;SDS011;3968;51.424;6.788;2023-04-29T09:27:43;34.07;;;22.00;;
7845;SDS011;3968;51.424;6.788;2023-04-29T09:30:09;30.13;;;21.73;;
7845;SDS011;3968;51.424;6.788;2023-04-29T09:32:40;30.07;;;21.33;;
7845;SDS011;3968;51.424;6.788;2023-04-29T09:35:25;31.57;;;22.33;;
7845;SDS011;3968;51.424;6.788;2023-04-29T09:37:52;30.23;;;20.87;;
7845;SDS011;3968;51.424;6.788;2023-04-29T09:40:39;31.53;;;21.43;;
7845;SDS011;3968;51.424;6.788;2023-04-29T09:43:10;29.67;;;21.77;;
7845;SDS011;3968;51.424;6.788;2023-04-29T09:45:38;33.37;;;21.37;;
7845;SDS011;3968;51.424;6.788;2023-04-29T09:48:05;28.67;;;21.00;;
7845;SDS011;3968;51.424;6.788;2023-04-29T09:50:33;28.40;;;21.93;;
7845;SDS011;3968;51.424;6.788;2023-04-29T09:53:01;78.80;;;53.03;;
7845;SDS011;3968;51.424;6.788;2023-04-29T09:55:27;95.37;;;63.63;;
7845;SDS011;3968;51.424;6.788;2023-04-29T09:57:56;210.47;;;134.07;;
7845;SDS011;3968;51.424;6.788;2023-04-29T10:00:23;44.00;;;29.97;;
7845;SDS011;3968;51.424;6.788;2023-04-29T10:02:50;28.07;;;22.20;;
7845;SDS011;3968;51.424;6.788;2023-04-29T10:05:18;28.60;;;20.93;;
7845;SDS011;3968;51.424;6.788;2023-04-29T10:07:47;27.00;;;20.27;;
7845;SDS011;3968;51.424;6.788;2023-04-29T10:10:14;24.27;;;19.13;;
7845;SDS011;3968;51.424;6.788;2023-04-29T10:12:41;32.37;;;23.70;;
7845;SDS011;3968;51.424;6.788;2023-04-29T10:17:48;26.10;;;20.33;;
7845;SDS011;3968;51.424;6.788;2023-04-29T10:20:23;28.73;;;21.67;;
7845;SDS011;3968;51.424;6.788;2023-04-29T10:22:53;28.03;;;19.20;;
7845;SDS011;3968;51.424;6.788;2023-04-29T10:25:21;30.27;;;20.37;;
7845;SDS011;3968;51.424;6.788;2023-04-29T10:27:47;26.73;;;20.57;;
7845;SDS011;3968;51.424;6.788;2023-04-29T10:30:15;29.17;;;20.77;;
7845;SDS011;3968;51.424;6.788;2023-04-29T10:32:45;29.40;;;21.07;;
7845;SDS011;3968;51.424;6.788;2023-04-29T10:35:11;27.47;;;20.50;;
7845;SDS011;3968;51.424;6.788;2023-04-29T10:37:38;31.50;;;20.37;;
7845;SDS011;3968;51.424;6.788;2023-04-29T10:40:11;26.33;;;20.87;;
7845;SDS011;3968;51.424;6.788;2023-04-29T10:42:47;25.63;;;20.27;;
7845;SDS011;3968;51.424;6.788;2023-04-29T10:45:17;25.27;;;19.60;;
7845;SDS011;3968;51.424;6.788;2023-04-29T10:50:34;26.20;;;20.80;;
7845;SDS011;3968;51.424;6.788;2023-04-29T10:53:00;22.03;;;18.80;;
7845;SDS011;3968;51.424;6.788;2023-04-29T10:55:27;25.47;;;19.70;;
7845;SDS011;3968;51.424;6.788;2023-04-29T10:57:53;29.07;;;20.87;;
7845;SDS011;3968;51.424;6.788;2023-04-29T11:00:21;28.83;;;20.93;;
7845;SDS011;3968;51.424;6.788;2023-04-29T11:02:48;25.27;;;20.10;;
7845;SDS011;3968;51.424;6.788;2023-04-29T11:05:14;26.87;;;19.93;;
7845;SDS011;3968;51.424;6.788;2023-04-29T11:07:42;22.13;;;18.67;;
7845;SDS011;3968;51.424;6.788;2023-04-29T11:10:11;25.00;;;18.30;;
7845;SDS011;3968;51.424;6.788;2023-04-29T11:12:37;22.60;;;18.17;;
7845;SDS011;3968;51.424;6.788;2023-04-29T11:15:03;24.43;;;18.47;;
7845;SDS011;3968;51.424;6.788;2023-04-29T11:17:35;21.60;;;17.53;;
7845;SDS011;3968;51.424;6.788;2023-04-29T11:20:02;24.33;;;19.40;;
7845;SDS011;3968;51.424;6.788;2023-04-29T11:22:28;21.90;;;18.43;;
7845;SDS011;3968;51.424;6.788;2023-04-29T11:24:56;25.20;;;19.00;;
7845;SDS011;3968;51.424;6.788;2023-04-29T11:27:45;23.83;;;18.30;;
7845;SDS011;3968;51.424;6.788;2023-04-29T11:30:13;23.23;;;17.80;;
7845;SDS011;3968;51.424;6.788;2023-04-29T11:32:40;23.73;;;17.37;;
7845;SDS011;3968;51.424;6.788;2023-04-29T11:37:33;85.53;;;58.07;;
7845;SDS011;3968;51.424;6.788;2023-04-29T11:40:00;92.77;;;69.40;;
7845;SDS011;3968;51.424;6.788;2023-04-29T11:42:26;43.58;;;31.10;;
7845;SDS011;3968;51.424;6.788;2023-04-29T11:44:55;21.77;;;18.17;;
7845;SDS011;3968;51.424;6.788;2023-04-29T11:47:27;20.00;;;17.05;;
7845;SDS011;3968;51.424;6.788;2023-04-29T11:50:06;22.17;;;18.07;;
7845;SDS011;3968;51.424;6.788;2023-04-29T11:52:39;20.17;;;17.58;;
7845;SDS011;3968;51.424;6.788;2023-04-29T11:55:08;22.57;;;17.63;;
7845;SDS011;3968;51.424;6.788;2023-04-29T11:57:35;21.65;;;17.20;;
7845;SDS011;3968;51.424;6.788;2023-04-29T12:00:07;16.90;;;15.10;;
7845;SDS011;3968;51.424;6.788;2023-04-29T12:02:34;22.02;;;16.20;;
7845;SDS011;3968;51.424;6.788;2023-04-29T12:05:04;17.65;;;15.55;;
7845;SDS011;3968;51.424;6.788;2023-04-29T12:07:31;17.73;;;14.88;;
7845;SDS011;3968;51.424;6.788;2023-04-29T12:09:57;16.20;;;14.48;;
7845;SDS011;3968;51.424;6.788;2023-04-29T12:12:24;16.15;;;14.13;;
7845;SDS011;3968;51.424;6.788;2023-04-29T12:14:51;23.07;;;16.23;;
7845;SDS011;3968;51.424;6.788;2023-04-29T12:17:18;17.70;;;12.85;;
7845;SDS011;3968;51.424;6.788;2023-04-29T12:19:44;16.75;;;12.88;;
7845;SDS011;3968;51.424;6.788;2023-04-29T12:22:11;14.98;;;13.40;;
7845;SDS011;3968;51.424;6.788;2023-04-29T12:24:38;15.50;;;12.70;;
7845;SDS011;3968;51.424;6.788;2023-04-29T12:27:08;14.52;;;12.40;;
7845;SDS011;3968;51.424;6.788;2023-04-29T12:29:35;15.13;;;13.33;;
7845;SDS011;3968;51.424;6.788;2023-04-29T12:32:01;15.13;;;13.30;;
7845;SDS011;3968;51.424;6.788;2023-04-29T12:34:28;15.37;;;12.83;;
7845;SDS011;3968;51.424;6.788;2023-04-29T12:36:55;14.70;;;12.40;;
7845;SDS011;3968;51.424;6.788;2023-04-29T12:39:22;17.17;;;12.90;;
7845;SDS011;3968;51.424;6.788;2023-04-29T12:41:48;17.80;;;11.50;;
7845;SDS011;3968;51.424;6.788;2023-04-29T12:44:14;13.45;;;10.98;;
7845;SDS011;3968;51.424;6.788;2023-04-29T12:46:40;16.17;;;11.80;;
7845;SDS011;3968;51.424;6.788;2023-04-29T12:49:06;11.53;;;10.20;;
7845;SDS011;3968;51.424;6.788;2023-04-29T12:51:33;12.87;;;9.77;;
7845;SDS011;3968;51.424;6.788;2023-04-29T12:54:02;11.07;;;9.75;;
7845;SDS011;3968;51.424;6.788;2023-04-29T12:56:30;13.05;;;11.02;;
7845;SDS011;3968;51.424;6.788;2023-04-29T12:59:03;12.23;;;10.23;;
7845;SDS011;3968;51.424;6.788;2023-04-29T13:01:30;14.13;;;10.47;;
7845;SDS011;3968;51.424;6.788;2023-04-29T13:03:56;11.55;;;10.27;;
7845;SDS011;3968;51.424;6.788;2023-04-29T13:06:22;11.73;;;9.93;;
7845;SDS011;3968;51.424;6.788;2023-04-29T13:08:48;13.27;;;10.57;;
7845;SDS011;3968;51.424;6.788;2023-04-29T13:11:15;13.65;;;10.57;;
7845;SDS011;3968;51.424;6.788;2023-04-29T13:13:41;13.70;;;10.68;;
7845;SDS011;3968;51.424;6.788;2023-04-29T13:16:08;14.93;;;10.63;;
7845;SDS011;3968;51.424;6.788;2023-04-29T13:18:34;13.77;;;10.52;;
7845;SDS011;3968;51.424;6.788;2023-04-29T13:21:01;12.23;;;10.57;;
7845;SDS011;3968;51.424;6.788;2023-04-29T13:23:26;10.38;;;9.27;;
7845;SDS011;3968;51.424;6.788;2023-04-29T13:25:52;11.00;;;9.45;;
7845;SDS011;3968;51.424;6.788;2023-04-29T13:28:19;12.23;;;9.97;;
7845;SDS011;3968;51.424;6.788;2023-04-29T13:30:46;11.10;;;9.33;;
7845;SDS011;3968;51.424;6.788;2023-04-29T13:33:12;11.67;;;9.70;;
7845;SDS011;3968;51.424;6.788;2023-04-29T13:35:38;9.93;;;8.83;;
7845;SDS011;3968;51.424;6.788;2023-04-29T13:38:05;11.93;;;10.18;;
7845;SDS011;3968;51.424;6.788;2023-04-29T13:40:31;11.73;;;8.63;;
7845;SDS011;3968;51.424;6.788;2023-04-29T13:42:57;12.38;;;9.18;;
7845;SDS011;3968;51.424;6.788;2023-04-29T13:45:23;10.90;;;9.75;;
7845;SDS011;3968;51.424;6.788;2023-04-29T13:47:49;15.90;;;10.57;;
7845;SDS011;3968;51.424;6.788;2023-04-29T13:50:15;13.15;;;9.90;;
7845;SDS011;3968;51.424;6.788;2023-04-29T13:52:41;11.60;;;9.52;;
7845;SDS011;3968;51.424;6.788;2023-04-29T13:55:07;14.77;;;10.05;;
7845;SDS011;3968;51.424;6.788;2023-04-29T13:57:34;10.83;;;9.20;;
7845;SDS011;3968;51.424;6.788;2023-04-29T14:00:00;14.60;;;10.07;;
7845;SDS011;3968;51.424;6.788;2023-04-29T14:02:26;11.32;;;9.02;;
7845;SDS011;3968;51.424;6.788;2023-04-29T14:04:52;10.15;;;8.90;;
7845;SDS011;3968;51.424;6.788;2023-04-29T14:07:18;14.15;;;12.27;;
7845;SDS011;3968;51.424;6.788;2023-04-29T14:09:44;12.63;;;9.40;;
7845;SDS011;3968;51.424;6.788;2023-04-29T14:12:10;15.60;;;9.35;;
7845;SDS011;3968;51.424;6.788;2023-04-29T14:14:36;11.07;;;8.80;;
7845;SDS011;3968;51.424;6.788;2023-04-29T14:17:02;11.50;;;9.40;;
7845;SDS011;3968;51.424;6.788;2023-04-29T14:19:28;11.55;;;8.25;;
7845;SDS011;3968;51.424;6.788;2023-04-29T14:21:54;10.38;;;7.82;;
7845;SDS011;3968;51.424;6.788;2023-04-29T14:24:20;9.27;;;7.53;;
7845;SDS011;3968;51.424;6.788;2023-04-29T14:26:46;8.63;;;7.03;;
7845;SDS011;3968;51.424;6.788;2023-04-29T14:29:12;8.80;;;7.30;;
7845;SDS011;3968;51.424;6.788;2023-04-29T14:31:38;10.90;;;7.20;;
7845;SDS011;3968;51.424;6.788;2023-04-29T14:34:05;7.68;;;6.00;;
7845;SDS011;3968;51.424;6.788;2023-04-29T14:36:31;8.65;;;6.72;;
7845;SDS011;3968;51.424;6.788;2023-04-29T14:38:58;10.65;;;7.18;;
7845;SDS011;3968;51.424;6.788;2023-04-29T14:41:25;8.60;;;6.85;;
7845;SDS011;3968;51.424;6.788;2023-04-29T14:43:51;8.30;;;6.82;;
7845;SDS011;3968;51.424;6.788;2023-04-29T14:46:17;10.23;;;7.65;;
7845;SDS011;3968;51.424;6.788;2023-04-29T14:48:44;7.72;;;6.38;;
7845;SDS011;3968;51.424;6.788;2023-04-29T14:51:10;11.73;;;8.10;;
7845;SDS011;3968;51.424;6.788;2023-04-29T14:53:36;11.20;;;9.70;;
7845;SDS011;3968;51.424;6.788;2023-04-29T14:56:02;13.77;;;9.18;;
7845;SDS011;3968;51.424;6.788;2023-04-29T14:58:29;16.88;;;10.30;;
7845;SDS011;3968;51.424;6.788;2023-04-29T15:00:55;14.15;;;10.05;;
7845;SDS011;3968;51.424;6.788;2023-04-29T15:03:21;13.52;;;9.52;;
7845;SDS011;3968;51.424;6.788;2023-04-29T15:05:47;11.95;;;9.52;;
7845;SDS011;3968;51.424;6.788;2023-04-29T15:08:16;16.25;;;8.52;;
7845;SDS011;3968;51.424;6.788;2023-04-29T15:10:43;14.27;;;9.13;;